sensor_id;sensor_type;location;lat;lon;timestamp;pressure;altitude;pressure_sealevel;temperature;humidity
63731;BME280;49747;51.334;6.830;2022-12-07T00:01:04;101180.75;;;11.56;72.98
63731;BME280;49747;51.334;6.830;2022-12-07T00:03:30;101177.16;;;11.57;72.67
63731;BME280;49747;51.334;6.830;2022-12-07T00:05:58;101182.50;;;11.57;72.76
63731;BME280;49747;51.334;6.830;2022-12-07T00:08:24;101178.88;;;11.58;72.42
63731;BME280;49747;51.334;6.830;2022-12-07T00:10:50;101185.88;;;11.59;72.37
63731;BME280;49747;51.334;6.830;2022-12-07T00:13:17;101185.88;;;11.59;72.56
63731;BME280;49747;51.334;6.830;2022-12-07T00:15:44;101185.88;;;11.59;72.79
63731;BME280;49747;51.334;6.830;2022-12-07T00:18:11;101182.50;;;11.57;72.94
63731;BME280;49747;51.334;6.830;2022-12-07T00:20:37;101176.41;;;11.55;72.74
63731;BME280;49747;51.334;6.830;2022-12-07T00:23:04;101183.97;;;11.61;72.61
63731;BME280;49747;51.334;6.830;2022-12-07T00:25:30;101188.22;;;11.64;72.95
63731;BME280;49747;51.334;6.830;2022-12-07T00:27:57;101188.34;;;11.62;73.47
63731;BME280;49747;51.334;6.830;2022-12-07T00:30:23;101178.66;;;11.61;73.02
63731;BME280;49747;51.334;6.830;2022-12-07T00:32:50;101179.50;;;11.62;73.15
63731;BME280;49747;51.334;6.830;2022-12-07T00:35:16;101174.19;;;11.62;73.06
63731;BME280;49747;51.334;6.830;2022-12-07T00:37:42;101168.75;;;11.63;72.82
63731;BME280;49747;51.334;6.830;2022-12-07T00:40:09;101174.06;;;11.63;73.05
63731;BME280;49747;51.334;6.830;2022-12-07T00:42:36;101166.94;;;11.64;73.26
63731;BME280;49747;51.334;6.830;2022-12-07T00:45:02;101166.09;;;11.63;72.92
63731;BME280;49747;51.334;6.830;2022-12-07T00:47:29;101167.91;;;11.63;73.33
63731;BME280;49747;51.334;6.830;2022-12-07T00:49:55;101161.81;;;11.60;73.07
63731;BME280;49747;51.334;6.830;2022-12-07T00:52:22;101168.00;;;11.61;72.81
63731;BME280;49747;51.334;6.830;2022-12-07T00:54:48;101160.03;;;11.61;72.82
63731;BME280;49747;51.334;6.830;2022-12-07T00:57:15;101159.16;;;11.60;72.86
63731;BME280;49747;51.334;6.830;2022-12-07T00:59:41;101158.09;;;11.63;72.61
63731;BME280;49747;51.334;6.830;2022-12-07T01:02:08;101157.97;;;11.65;72.48
63731;BME280;49747;51.334;6.830;2022-12-07T01:04:35;101164.19;;;11.65;73.08
63731;BME280;49747;51.334;6.830;2022-12-07T01:07:01;101164.19;;;11.65;73.00
63731;BME280;49747;51.334;6.830;2022-12-07T01:09:28;101165.97;;;11.65;72.92
63731;BME280;49747;51.334;6.830;2022-12-07T01:11:54;101159.06;;;11.62;73.88
63731;BME280;49747;51.334;6.830;2022-12-07T01:14:20;101160.97;;;11.60;72.83
63731;BME280;49747;51.334;6.830;2022-12-07T01:16:47;101161.81;;;11.60;72.93
63731;BME280;49747;51.334;6.830;2022-12-07T01:19:13;101152.03;;;11.61;72.79
63731;BME280;49747;51.334;6.830;2022-12-07T01:21:40;101154.59;;;11.63;73.43
63731;BME280;49747;51.334;6.830;2022-12-07T01:24:09;101156.50;;;11.60;73.07
63731;BME280;49747;51.334;6.830;2022-12-07T01:26:36;101151.94;;;11.63;73.29
63731;BME280;49747;51.334;6.830;2022-12-07T01:29:03;101147.56;;;11.62;73.29
63731;BME280;49747;51.334;6.830;2022-12-07T01:31:30;101145.25;;;11.57;73.78
63731;BME280;49747;51.334;6.830;2022-12-07T01:33:58;101144.34;;;11.56;73.78
63731;BME280;49747;51.334;6.830;2022-12-07T01:36:30;101151.41;;;11.57;73.72
63731;BME280;49747;51.334;6.830;2022-12-07T01:39:02;101155.00;;;11.56;72.75
63731;BME280;49747;51.334;6.830;2022-12-07T01:41:32;101155.13;;;11.55;73.42
63731;BME280;49747;51.334;6.830;2022-12-07T01:44:26;101159.38;;;11.57;73.22
63731;BME280;49747;51.334;6.830;2022-12-07T01:47:00;101165.66;;;11.56;73.30
63731;BME280;49747;51.334;6.830;2022-12-07T01:49:35;101155.13;;;11.55;73.70
63731;BME280;49747;51.334;6.830;2022-12-07T01:52:29;101155.88;;;11.57;73.30
63731;BME280;49747;51.334;6.830;2022-12-07T01:55:00;101157.56;;;11.58;73.05
63731;BME280;49747;51.334;6.830;2022-12-07T01:57:28;101157.56;;;11.58;73.08
63731;BME280;49747;51.334;6.830;2022-12-07T01:59:57;101162.91;;;11.58;73.09
63731;BME280;49747;51.334;6.830;2022-12-07T02:02:43;101158.44;;;11.58;72.85
63731;BME280;49747;51.334;6.830;2022-12-07T02:05:12;101148.75;;;11.57;73.42
63731;BME280;49747;51.334;6.830;2022-12-07T02:07:40;101148.84;;;11.56;73.46
63731;BME280;49747;51.334;6.830;2022-12-07T02:12:45;101141.81;;;11.55;72.94
63731;BME280;49747;51.334;6.830;2022-12-07T02:15:13;101138.31;;;11.54;72.45
63731;BME280;49747;51.334;6.830;2022-12-07T02:17:53;101135.66;;;11.54;72.03
63731;BME280;49747;51.334;6.830;2022-12-07T02:20:29;101135.72;;;11.53;72.55
63731;BME280;49747;51.334;6.830;2022-12-07T02:23:36;101136.69;;;11.52;72.06
63731;BME280;49747;51.334;6.830;2022-12-07T02:31:44;101147.34;;;11.52;72.32
63731;BME280;49747;51.334;6.830;2022-12-07T02:34:22;101151.69;;;11.53;72.25
63731;BME280;49747;51.334;6.830;2022-12-07T02:36:57;101153.50;;;11.52;72.21
63731;BME280;49747;51.334;6.830;2022-12-07T02:39:39;101157.91;;;11.53;72.11
63731;BME280;49747;51.334;6.830;2022-12-07T02:42:09;101156.94;;;11.54;72.12
63731;BME280;49747;51.334;6.830;2022-12-07T02:44:39;101158.63;;;11.55;72.33
63731;BME280;49747;51.334;6.830;2022-12-07T02:47:09;101150.84;;;11.52;71.85
63731;BME280;49747;51.334;6.830;2022-12-07T02:49:38;101149.91;;;11.53;71.71
63731;BME280;49747;51.334;6.830;2022-12-07T02:52:06;101149.78;;;11.55;71.61
63731;BME280;49747;51.334;6.830;2022-12-07T02:54:32;101145.44;;;11.54;71.82
63731;BME280;49747;51.334;6.830;2022-12-07T03:02:46;101149.69;;;11.56;71.36
63731;BME280;49747;51.334;6.830;2022-12-07T03:05:41;101148.94;;;11.54;71.97
63731;BME280;49747;51.334;6.830;2022-12-07T03:11:17;101148.31;;;11.51;71.28
63731;BME280;49747;51.334;6.830;2022-12-07T03:16:42;101146.38;;;11.53;71.30
63731;BME280;49747;51.334;6.830;2022-12-07T03:19:20;101150.00;;;11.52;71.10
63731;BME280;49747;51.334;6.830;2022-12-07T03:21:54;101150.97;;;11.51;71.22
63731;BME280;49747;51.334;6.830;2022-12-07T03:24:27;101151.81;;;11.51;70.89
63731;BME280;49747;51.334;6.830;2022-12-07T03:27:11;101150.84;;;11.52;70.85
63731;BME280;49747;51.334;6.830;2022-12-07T03:29:49;101148.44;;;11.49;71.61
63731;BME280;49747;51.334;6.830;2022-12-07T03:32:31;101140.44;;;11.49;70.81
63731;BME280;49747;51.334;6.830;2022-12-07T03:35:05;101145.78;;;11.49;71.03
63731;BME280;49747;51.334;6.830;2022-12-07T03:37:37;101139.56;;;11.49;70.99
63731;BME280;49747;51.334;6.830;2022-12-07T03:40:14;101143.31;;;11.46;70.30
63731;BME280;49747;51.334;6.830;2022-12-07T03:42:43;101139.81;;;11.46;70.72
63731;BME280;49747;51.334;6.830;2022-12-07T03:45:11;101140.00;;;11.43;70.41
63731;BME280;49747;51.334;6.830;2022-12-07T03:48:05;101144.28;;;11.45;70.39
63731;BME280;49747;51.334;6.830;2022-12-07T03:51:04;101137.16;;;11.46;70.40
63731;BME280;49747;51.334;6.830;2022-12-07T03:54:00;101142.47;;;11.46;70.26
63731;BME280;49747;51.334;6.830;2022-12-07T03:56:28;101148.63;;;11.46;69.98
63731;BME280;49747;51.334;6.830;2022-12-07T03:58:55;101143.63;;;11.42;69.77
63731;BME280;49747;51.334;6.830;2022-12-07T04:01:23;101138.31;;;11.42;69.87
63731;BME280;49747;51.334;6.830;2022-12-07T04:03:49;101139.03;;;11.44;70.21
63731;BME280;49747;51.334;6.830;2022-12-07T04:06:16;101145.34;;;11.43;70.23
63731;BME280;49747;51.334;6.830;2022-12-07T04:08:42;101141.91;;;11.41;70.11
63731;BME280;49747;51.334;6.830;2022-12-07T04:11:09;101138.31;;;11.42;69.86
63731;BME280;49747;51.334;6.830;2022-12-07T04:13:35;101137.47;;;11.41;70.19
63731;BME280;49747;51.334;6.830;2022-12-07T04:16:22;101140.22;;;11.40;70.30
63731;BME280;49747;51.334;6.830;2022-12-07T04:18:48;101133.94;;;11.41;69.69
63731;BME280;49747;51.334;6.830;2022-12-07T04:21:14;101147.34;;;11.39;70.16
63731;BME280;49747;51.334;6.830;2022-12-07T04:23:41;101151.69;;;11.40;69.72
63731;BME280;49747;51.334;6.830;2022-12-07T04:26:08;101151.63;;;11.42;69.59
63731;BME280;49747;51.334;6.830;2022-12-07T04:28:34;101141.91;;;11.41;70.32
63731;BME280;49747;51.334;6.830;2022-12-07T04:31:01;101140.13;;;11.41;69.67
63731;BME280;49747;51.334;6.830;2022-12-07T04:33:27;101130.34;;;11.42;69.74
63731;BME280;49747;51.334;6.830;2022-12-07T04:35:54;101132.16;;;11.41;70.15
63731;BME280;49747;51.334;6.830;2022-12-07T04:38:20;101130.34;;;11.42;69.83
63731;BME280;49747;51.334;6.830;2022-12-07T04:40:47;101133.00;;;11.42;70.13
63731;BME280;49747;51.334;6.830;2022-12-07T04:43:13;101133.00;;;11.42;70.00
63731;BME280;49747;51.334;6.830;2022-12-07T04:45:45;101127.13;;;11.37;69.84
63731;BME280;49747;51.334;6.830;2022-12-07T04:48:12;101132.22;;;11.40;69.26
63731;BME280;49747;51.334;6.830;2022-12-07T04:50:38;101132.22;;;11.40;68.75
63731;BME280;49747;51.334;6.830;2022-12-07T04:53:11;101129.56;;;11.40;69.62
63731;BME280;49747;51.334;6.830;2022-12-07T04:55:38;101133.31;;;11.37;68.92
63731;BME280;49747;51.334;6.830;2022-12-07T04:58:04;101132.34;;;11.38;68.51
63731;BME280;49747;51.334;6.830;2022-12-07T05:00:31;101124.97;;;10.36;70.04
63731;BME280;49747;51.334;6.830;2022-12-07T05:02:57;101127.31;;;10.00;71.98
63731;BME280;49747;51.334;6.830;2022-12-07T05:05:24;101140.78;;;9.68;73.90
63731;BME280;49747;51.334;6.830;2022-12-07T05:07:52;101133.19;;;9.33;74.91
63731;BME280;49747;51.334;6.830;2022-12-07T05:10:19;101135.16;;;9.16;76.29
63731;BME280;49747;51.334;6.830;2022-12-07T05:12:47;101132.00;;;8.95;77.38
63731;BME280;49747;51.334;6.830;2022-12-07T05:15:15;101131.88;;;8.82;78.10
63731;BME280;49747;51.334;6.830;2022-12-07T05:17:42;101136.09;;;8.54;79.42
63731;BME280;49747;51.334;6.830;2022-12-07T05:20:09;101147.38;;;8.58;79.67
63731;BME280;49747;51.334;6.830;2022-12-07T05:22:35;101141.31;;;8.40;80.42
63731;BME280;49747;51.334;6.830;2022-12-07T05:25:03;101148.31;;;8.41;80.49
63731;BME280;49747;51.334;6.830;2022-12-07T05:27:32;101131.91;;;8.19;80.99
63731;BME280;49747;51.334;6.830;2022-12-07T05:29:59;101145.63;;;8.25;81.28
63731;BME280;49747;51.334;6.830;2022-12-07T05:32:26;101133.53;;;8.21;80.80
63731;BME280;49747;51.334;6.830;2022-12-07T05:34:53;101134.31;;;8.23;81.07
63731;BME280;49747;51.334;6.830;2022-12-07T05:37:21;101137.69;;;8.25;81.17
63731;BME280;49747;51.334;6.830;2022-12-07T05:39:47;101121.50;;;8.15;81.59
63731;BME280;49747;51.334;6.830;2022-12-07T05:42:14;101134.97;;;8.27;81.48
63731;BME280;49747;51.334;6.830;2022-12-07T05:44:42;101133.34;;;8.24;81.98
63731;BME280;49747;51.334;6.830;2022-12-07T05:47:10;101133.53;;;8.21;82.23
63731;BME280;49747;51.334;6.830;2022-12-07T05:49:38;101120.81;;;8.12;82.21
63731;BME280;49747;51.334;6.830;2022-12-07T05:52:05;101133.94;;;8.13;82.00
63731;BME280;49747;51.334;6.830;2022-12-07T05:54:32;101138.06;;;8.19;81.79
63731;BME280;49747;51.334;6.830;2022-12-07T05:56:59;101125.78;;;8.18;81.78
63731;BME280;49747;51.334;6.830;2022-12-07T05:59:26;101121.59;;;8.14;82.21
63731;BME280;49747;51.334;6.830;2022-12-07T06:02:03;101125.56;;;8.21;81.40
63731;BME280;49747;51.334;6.830;2022-12-07T06:04:33;101128.59;;;8.15;81.88
63731;BME280;49747;51.334;6.830;2022-12-07T06:07:00;101132.34;;;8.11;82.42
63731;BME280;49747;51.334;6.830;2022-12-07T06:09:27;101132.91;;;8.00;82.61
63731;BME280;49747;51.334;6.830;2022-12-07T06:11:55;101129.75;;;7.94;82.85
63731;BME280;49747;51.334;6.830;2022-12-07T06:14:41;101128.63;;;7.98;82.88
63731;BME280;49747;51.334;6.830;2022-12-07T06:17:08;101126.59;;;7.87;82.92
63731;BME280;49747;51.334;6.830;2022-12-07T06:19:36;101135.22;;;7.90;83.25
63731;BME280;49747;51.334;6.830;2022-12-07T06:22:03;101138.78;;;7.89;83.36
63731;BME280;49747;51.334;6.830;2022-12-07T06:24:32;101139.31;;;7.96;83.25
63731;BME280;49747;51.334;6.830;2022-12-07T06:26:59;101132.06;;;7.84;83.33
63731;BME280;49747;51.334;6.830;2022-12-07T06:29:27;101125.66;;;7.88;83.07
63731;BME280;49747;51.334;6.830;2022-12-07T06:31:53;101128.56;;;7.83;82.88
63731;BME280;49747;51.334;6.830;2022-12-07T06:34:21;101139.69;;;7.90;82.83
63731;BME280;49747;51.334;6.830;2022-12-07T06:36:51;101132.59;;;7.90;83.16
63731;BME280;49747;51.334;6.830;2022-12-07T06:39:28;101130.09;;;7.87;82.62
63731;BME280;49747;51.334;6.830;2022-12-07T06:41:55;101139.19;;;7.82;83.28
63731;BME280;49747;51.334;6.830;2022-12-07T06:44:22;101133.84;;;7.83;83.40
63731;BME280;49747;51.334;6.830;2022-12-07T06:46:50;101141.34;;;7.75;83.72
63731;BME280;49747;51.334;6.830;2022-12-07T06:49:21;101138.59;;;7.77;83.69
63731;BME280;49747;51.334;6.830;2022-12-07T06:51:48;101136.56;;;7.82;83.57
63731;BME280;49747;51.334;6.830;2022-12-07T06:54:15;101140.94;;;7.83;82.96
63731;BME280;49747;51.334;6.830;2022-12-07T06:56:42;101137.44;;;7.82;83.10
63731;BME280;49747;51.334;6.830;2022-12-07T06:59:08;101134.09;;;7.79;83.40
63731;BME280;49747;51.334;6.830;2022-12-07T07:01:36;101139.41;;;7.79;83.29
63731;BME280;49747;51.334;6.830;2022-12-07T07:04:03;101151.56;;;7.81;83.37
63731;BME280;49747;51.334;6.830;2022-12-07T07:06:30;101147.38;;;7.77;83.71
63731;BME280;49747;51.334;6.830;2022-12-07T07:08:57;101144.84;;;7.76;83.58
63731;BME280;49747;51.334;6.830;2022-12-07T07:11:25;101143.22;;;7.73;83.71
63731;BME280;49747;51.334;6.830;2022-12-07T07:13:52;101146.53;;;7.77;83.31
63731;BME280;49747;51.334;6.830;2022-12-07T07:16:19;101130.16;;;7.70;83.64
63731;BME280;49747;51.334;6.830;2022-12-07T07:18:46;101146.53;;;7.77;83.54
63731;BME280;49747;51.334;6.830;2022-12-07T07:21:16;101148.09;;;7.81;83.39
63731;BME280;49747;51.334;6.830;2022-12-07T07:23:43;101153.31;;;7.82;83.68
63731;BME280;49747;51.334;6.830;2022-12-07T07:26:09;101148.44;;;7.75;84.03
63731;BME280;49747;51.334;6.830;2022-12-07T07:28:38;101159.75;;;7.77;83.88
63731;BME280;49747;51.334;6.830;2022-12-07T07:31:05;101153.31;;;7.82;83.44
63731;BME280;49747;51.334;6.830;2022-12-07T07:33:32;101150.44;;;7.70;83.61
63731;BME280;49747;51.334;6.830;2022-12-07T07:35:59;101159.06;;;7.73;83.59
63731;BME280;49747;51.334;6.830;2022-12-07T07:38:25;101153.88;;;7.72;83.14
63731;BME280;49747;51.334;6.830;2022-12-07T07:40:52;101160.81;;;7.74;83.09
63731;BME280;49747;51.334;6.830;2022-12-07T07:43:19;101157.78;;;7.64;84.08
63731;BME280;49747;51.334;6.830;2022-12-07T07:45:45;101153.34;;;7.65;84.45
63731;BME280;49747;51.334;6.830;2022-12-07T07:48:12;101152.03;;;7.56;85.42
63731;BME280;49747;51.334;6.830;2022-12-07T07:50:38;101144.28;;;9.69;100.00
63731;BME280;49747;51.334;6.830;2022-12-07T07:53:05;101145.66;;;9.61;100.00
63731;BME280;49747;51.334;6.830;2022-12-07T07:55:31;101151.53;;;8.78;83.12
63731;BME280;49747;51.334;6.830;2022-12-07T07:57:58;101157.28;;;8.54;81.72
63731;BME280;49747;51.334;6.830;2022-12-07T08:00:26;101166.59;;;8.46;81.60
63731;BME280;49747;51.334;6.830;2022-12-07T08:02:52;101164.00;;;8.28;81.66
63731;BME280;49747;51.334;6.830;2022-12-07T08:05:19;101161.03;;;8.19;82.06
63731;BME280;49747;51.334;6.830;2022-12-07T08:07:46;101152.72;;;8.09;82.21
63731;BME280;49747;51.334;6.830;2022-12-07T08:10:14;101165.38;;;8.04;82.55
63731;BME280;49747;51.334;6.830;2022-12-07T08:12:42;101170.06;;;7.99;82.47
63731;BME280;49747;51.334;6.830;2022-12-07T08:15:29;101164.84;;;7.97;82.08
63731;BME280;49747;51.334;6.830;2022-12-07T08:17:56;101171.16;;;7.95;82.09
63731;BME280;49747;51.334;6.830;2022-12-07T08:20:22;101175.75;;;7.91;81.76
63731;BME280;49747;51.334;6.830;2022-12-07T08:22:49;101166.19;;;7.88;82.36
63731;BME280;49747;51.334;6.830;2022-12-07T08:25:16;101173.72;;;7.96;82.06
63731;BME280;49747;51.334;6.830;2022-12-07T08:27:42;101158.63;;;7.98;81.41
63731;BME280;49747;51.334;6.830;2022-12-07T08:30:09;101172.50;;;8.02;81.31
63731;BME280;49747;51.334;6.830;2022-12-07T08:32:35;101171.44;;;8.06;80.94
63731;BME280;49747;51.334;6.830;2022-12-07T08:35:02;101184.31;;;8.12;80.67
63731;BME280;49747;51.334;6.830;2022-12-07T08:37:29;101178.94;;;8.13;80.87
63731;BME280;49747;51.334;6.830;2022-12-07T08:39:56;101172.63;;;8.16;80.70
63731;BME280;49747;51.334;6.830;2022-12-07T08:42:22;101177.06;;;8.15;80.43
63731;BME280;49747;51.334;6.830;2022-12-07T08:44:54;101166.91;;;8.08;80.50
63731;BME280;49747;51.334;6.830;2022-12-07T08:47:20;101165.38;;;8.04;81.19
63731;BME280;49747;51.334;6.830;2022-12-07T08:49:48;101176.47;;;8.10;80.75
63731;BME280;49747;51.334;6.830;2022-12-07T08:52:17;101167.44;;;8.14;80.35
63731;BME280;49747;51.334;6.830;2022-12-07T08:54:44;101169.72;;;8.21;80.27
63731;BME280;49747;51.334;6.830;2022-12-07T08:57:11;101173.84;;;8.26;80.03
63731;BME280;49747;51.334;6.830;2022-12-07T08:59:38;101168.34;;;8.29;80.10
63731;BME280;49747;51.334;6.830;2022-12-07T09:02:05;101172.06;;;8.43;79.57
63731;BME280;49747;51.334;6.830;2022-12-07T09:04:32;101173.75;;;8.59;79.38
63731;BME280;49747;51.334;6.830;2022-12-07T09:06:59;101179.22;;;8.56;78.90
63731;BME280;49747;51.334;6.830;2022-12-07T09:09:27;101164.88;;;8.45;79.57
63731;BME280;49747;51.334;6.830;2022-12-07T09:11:54;101171.88;;;8.61;79.84
63731;BME280;49747;51.334;6.830;2022-12-07T09:14:22;101174.22;;;8.98;77.64
63731;BME280;49747;51.334;6.830;2022-12-07T09:16:49;101161.59;;;8.87;78.57
63731;BME280;49747;51.334;6.830;2022-12-07T09:19:16;101172.31;;;9.30;76.70
63731;BME280;49747;51.334;6.830;2022-12-07T09:21:42;101173.34;;;8.97;76.66
63731;BME280;49747;51.334;6.830;2022-12-07T09:24:09;101174.38;;;8.95;77.86
63731;BME280;49747;51.334;6.830;2022-12-07T09:26:36;101163.00;;;10.37;72.31
63731;BME280;49747;51.334;6.830;2022-12-07T09:29:03;101162.31;;;11.15;68.63
63731;BME280;49747;51.334;6.830;2022-12-07T09:31:30;101157.91;;;12.76;63.47
63731;BME280;49747;51.334;6.830;2022-12-07T09:33:58;101170.50;;;12.26;64.05
63731;BME280;49747;51.334;6.830;2022-12-07T09:36:28;101170.13;;;11.43;67.04
63731;BME280;49747;51.334;6.830;2022-12-07T09:38:55;101172.13;;;10.74;69.72
63731;BME280;49747;51.334;6.830;2022-12-07T09:41:23;101172.13;;;10.33;72.40
63731;BME280;49747;51.334;6.830;2022-12-07T09:43:53;101170.25;;;10.06;74.30
63731;BME280;49747;51.334;6.830;2022-12-07T09:46:24;101177.66;;;9.87;74.11
63731;BME280;49747;51.334;6.830;2022-12-07T09:48:51;101169.78;;;9.57;75.79
63731;BME280;49747;51.334;6.830;2022-12-07T09:51:22;101174.03;;;9.45;76.63
63731;BME280;49747;51.334;6.830;2022-12-07T09:53:53;101174.31;;;9.41;76.78
63731;BME280;49747;51.334;6.830;2022-12-07T09:56:21;101155.13;;;9.21;76.87
63731;BME280;49747;51.334;6.830;2022-12-07T09:58:50;101156.19;;;9.33;77.41
63731;BME280;49747;51.334;6.830;2022-12-07T10:01:21;101151.00;;;9.31;76.89
63731;BME280;49747;51.334;6.830;2022-12-07T10:04:01;101138.59;;;10.03;73.85
63731;BME280;49747;51.334;6.830;2022-12-07T10:06:28;101154.78;;;10.13;72.89
63731;BME280;49747;51.334;6.830;2022-12-07T10:08:54;101154.25;;;9.94;73.53
63731;BME280;49747;51.334;6.830;2022-12-07T10:11:21;101148.56;;;9.71;74.80
63731;BME280;49747;51.334;6.830;2022-12-07T10:13:51;101136.56;;;9.66;74.82
63731;BME280;49747;51.334;6.830;2022-12-07T10:19:27;101147.78;;;9.41;75.89
63731;BME280;49747;51.334;6.830;2022-12-07T10:24:28;101147.19;;;9.21;77.54
63731;BME280;49747;51.334;6.830;2022-12-07T10:26:56;101153.59;;;9.17;78.07
63731;BME280;49747;51.334;6.830;2022-12-07T10:29:34;101146.72;;;9.15;78.48
63731;BME280;49747;51.334;6.830;2022-12-07T10:34:37;101136.16;;;8.99;78.91
63731;BME280;49747;51.334;6.830;2022-12-07T10:39:49;101134.53;;;9.26;77.70
63731;BME280;49747;51.334;6.830;2022-12-07T10:42:26;101137.00;;;9.44;77.82
63731;BME280;49747;51.334;6.830;2022-12-07T10:47:51;101126.56;;;9.98;76.00
63731;BME280;49747;51.334;6.830;2022-12-07T10:59:13;101112.84;;;10.32;74.57
63731;BME280;49747;51.334;6.830;2022-12-07T11:07:45;101106.25;;;10.11;73.60
63731;BME280;49747;51.334;6.830;2022-12-07T11:13:24;101094.47;;;10.15;72.71
63731;BME280;49747;51.334;6.830;2022-12-07T11:16:16;101096.06;;;9.91;73.94
63731;BME280;49747;51.334;6.830;2022-12-07T11:19:18;101093.22;;;9.79;73.98
63731;BME280;49747;51.334;6.830;2022-12-07T11:27:37;101076.94;;;9.71;74.71
63731;BME280;49747;51.334;6.830;2022-12-07T11:30:19;101091.44;;;9.66;74.96
63731;BME280;49747;51.334;6.830;2022-12-07T11:33:15;101074.09;;;9.60;75.56
63731;BME280;49747;51.334;6.830;2022-12-07T11:38:47;101068.25;;;9.55;75.26
63731;BME280;49747;51.334;6.830;2022-12-07T11:41:22;101063.53;;;9.46;76.97
63731;BME280;49747;51.334;6.830;2022-12-07T11:44:15;101061.91;;;9.43;75.48
63731;BME280;49747;51.334;6.830;2022-12-07T11:47:02;101048.25;;;9.35;75.41
63731;BME280;49747;51.334;6.830;2022-12-07T11:49:58;101049.84;;;9.52;75.59
63731;BME280;49747;51.334;6.830;2022-12-07T11:55:18;101048.06;;;9.52;75.85
63731;BME280;49747;51.334;6.830;2022-12-07T11:57:49;101054.03;;;9.56;75.76
63731;BME280;49747;51.334;6.830;2022-12-07T12:00:18;101043.22;;;9.45;75.12
63731;BME280;49747;51.334;6.830;2022-12-07T12:03:15;101041.53;;;9.29;74.86
63731;BME280;49747;51.334;6.830;2022-12-07T12:05:47;101045.88;;;9.45;75.24
63731;BME280;49747;51.334;6.830;2022-12-07T12:08:21;101057.16;;;9.48;74.93
63731;BME280;49747;51.334;6.830;2022-12-07T12:22:18;101040.31;;;9.35;75.17
63731;BME280;49747;51.334;6.830;2022-12-07T12:24:52;101037.34;;;9.25;76.10
63731;BME280;49747;51.334;6.830;2022-12-07T12:27:35;101036.63;;;9.23;76.00
63731;BME280;49747;51.334;6.830;2022-12-07T12:30:06;101028.56;;;9.25;75.42
63731;BME280;49747;51.334;6.830;2022-12-07T12:32:41;101030.38;;;9.38;75.97
63731;BME280;49747;51.334;6.830;2022-12-07T12:35:32;101028.19;;;9.31;75.40
63731;BME280;49747;51.334;6.830;2022-12-07T12:38:25;101030.72;;;9.32;74.86
63731;BME280;49747;51.334;6.830;2022-12-07T12:40:58;101033.50;;;9.31;75.07
63731;BME280;49747;51.334;6.830;2022-12-07T12:43:49;101028.09;;;9.47;74.63
63731;BME280;49747;51.334;6.830;2022-12-07T12:51:51;101019.84;;;9.08;74.73
63731;BME280;49747;51.334;6.830;2022-12-07T12:54:22;101023.75;;;9.03;75.65
63731;BME280;49747;51.334;6.830;2022-12-07T12:59:38;101034.19;;;8.46;79.51
63731;BME280;49747;51.334;6.830;2022-12-07T13:02:16;101038.03;;;8.10;77.14
63731;BME280;49747;51.334;6.830;2022-12-07T13:10:32;101008.91;;;8.56;78.75
63731;BME280;49747;51.334;6.830;2022-12-07T13:31:35;101000.47;;;8.94;79.92
63731;BME280;49747;51.334;6.830;2022-12-07T13:34:04;100990.88;;;9.05;80.40
63731;BME280;49747;51.334;6.830;2022-12-07T13:36:38;100981.34;;;9.03;79.65
63731;BME280;49747;51.334;6.830;2022-12-07T13:41:42;100987.97;;;9.10;80.01
63731;BME280;49747;51.334;6.830;2022-12-07T13:44:12;100975.47;;;9.12;80.44
63731;BME280;49747;51.334;6.830;2022-12-07T13:47:19;100981.13;;;9.20;79.20
63731;BME280;49747;51.334;6.830;2022-12-07T13:49:53;100979.34;;;9.06;79.07
63731;BME280;49747;51.334;6.830;2022-12-07T13:52:22;100971.16;;;9.79;100.00
63731;BME280;49747;51.334;6.830;2022-12-07T13:55:14;100962.59;;;10.81;100.00
63731;BME280;49747;51.334;6.830;2022-12-07T13:57:42;100961.16;;;10.37;79.76
63731;BME280;49747;51.334;6.830;2022-12-07T14:00:16;100958.84;;;10.05;75.73
63731;BME280;49747;51.334;6.830;2022-12-07T14:05:43;100952.19;;;9.58;76.42
63731;BME280;49747;51.334;6.830;2022-12-07T14:13:39;100949.50;;;9.46;75.81
63731;BME280;49747;51.334;6.830;2022-12-07T14:16:18;100953.66;;;9.35;76.71
63731;BME280;49747;51.334;6.830;2022-12-07T14:18:48;100946.13;;;9.15;76.95
63731;BME280;49747;51.334;6.830;2022-12-07T14:21:18;100946.31;;;9.12;77.26
63731;BME280;49747;51.334;6.830;2022-12-07T14:24:09;100927.19;;;8.93;77.36
63731;BME280;49747;51.334;6.830;2022-12-07T14:26:40;100930.03;;;9.04;77.59
63731;BME280;49747;51.334;6.830;2022-12-07T14:31:48;100935.34;;;9.04;76.83
63731;BME280;49747;51.334;6.830;2022-12-07T14:34:15;100929.75;;;8.80;77.07
63731;BME280;49747;51.334;6.830;2022-12-07T14:36:42;100941.69;;;8.87;76.65
63731;BME280;49747;51.334;6.830;2022-12-07T14:39:09;100926.81;;;8.84;76.54
63731;BME280;49747;51.334;6.830;2022-12-07T14:41:39;100930.31;;;8.85;76.97
63731;BME280;49747;51.334;6.830;2022-12-07T14:44:22;100920.56;;;8.85;77.40
63731;BME280;49747;51.334;6.830;2022-12-07T14:46:54;100931.16;;;8.85;77.68
63731;BME280;49747;51.334;6.830;2022-12-07T14:49:42;100920.19;;;8.77;77.85
63731;BME280;49747;51.334;6.830;2022-12-07T14:52:17;100912.44;;;8.74;77.99
63731;BME280;49747;51.334;6.830;2022-12-07T14:55:13;100916.03;;;8.73;78.21
63731;BME280;49747;51.334;6.830;2022-12-07T14:57:40;100909.59;;;8.77;77.97
63731;BME280;49747;51.334;6.830;2022-12-07T15:00:07;100909.88;;;8.73;77.93
63731;BME280;49747;51.334;6.830;2022-12-07T15:02:34;100905.81;;;8.67;77.73
63731;BME280;49747;51.334;6.830;2022-12-07T15:05:01;100904.31;;;8.63;78.21
63731;BME280;49747;51.334;6.830;2022-12-07T15:07:28;100900.44;;;8.54;78.19
63731;BME280;49747;51.334;6.830;2022-12-07T15:09:54;100900.50;;;8.53;78.38
63731;BME280;49747;51.334;6.830;2022-12-07T15:12:21;100910.19;;;8.54;78.77
63731;BME280;49747;51.334;6.830;2022-12-07T15:14:48;100910.19;;;8.54;79.12